createdAt,value
2017-04-03T00:00:30.176Z,21.15
2017-04-03T00:01:40.468Z,21.29
2017-04-03T00:02:50.772Z,21.17
2017-04-03T00:04:01.060Z,21.17
2017-04-03T00:05:10.972Z,21.2
2017-04-03T00:06:21.250Z,21.2
2017-04-03T00:07:31.220Z,21.23
2017-04-03T00:08:41.175Z,21.23
2017-04-03T00:09:51.450Z,21.25
2017-04-03T00:11:01.671Z,21.15
2017-04-03T00:12:11.646Z,21.23
2017-04-03T00:13:21.934Z,21.22
2017-04-03T00:14:32.214Z,21.22
2017-04-03T00:15:42.488Z,21.19
2017-04-03T00:16:53.062Z,21.17
2017-04-03T00:18:03.019Z,21.22
2017-04-03T00:19:12.995Z,21.2
2017-04-03T00:20:22.951Z,21.26
2017-04-03T00:21:33.275Z,21.19
2017-04-03T00:22:43.801Z,21.14
2017-04-03T00:23:54.079Z,21.17
2017-04-03T00:25:04.037Z,21.17
2017-04-03T00:26:14.310Z,21.22
2017-04-03T00:27:24.581Z,21.19
2017-04-03T00:28:35.156Z,21.14
2017-04-03T00:29:45.433Z,21.17
2017-04-03T00:30:55.717Z,21.14
2017-04-03T00:32:06.053Z,21.13
2017-04-03T00:33:16.017Z,21.13
2017-04-03T00:34:26.551Z,21.14
2017-04-03T00:35:36.825Z,21.14
2017-04-03T00:36:47.117Z,21.13
2017-04-03T00:37:57.440Z,21.15
2017-04-03T00:39:07.947Z,21.15
2017-04-03T00:40:18.161Z,21.15
2017-04-03T00:41:28.131Z,21.17
2017-04-03T00:42:38.413Z,21.17
2017-04-03T00:43:48.697Z,21.15
2017-04-03T00:44:58.979Z,21.13
2017-04-03T00:46:09.565Z,21.14
2017-04-03T00:47:19.536Z,21.14
2017-04-03T00:48:30.098Z,21.11
2017-04-03T00:49:40.368Z,21.14
2017-04-03T00:50:50.344Z,21.14
2017-04-03T00:52:00.876Z,21.15
2017-04-03T00:53:10.538Z,21.1
2017-04-03T00:54:20.504Z,21.07
2017-04-03T00:55:30.782Z,21.03
2017-04-03T00:56:41.051Z,21.1
2017-04-03T00:57:51.367Z,21.14
2017-04-03T00:59:01.329Z,21.03
2017-04-03T01:00:11.597Z,21.04
2017-04-03T01:01:21.557Z,21.05
2017-04-03T01:02:31.517Z,21.08
2017-04-03T01:03:42.033Z,21.04
2017-04-03T01:04:52.304Z,21.07
2017-04-03T01:06:02.576Z,21.07
2017-04-03T01:07:12.224Z,21.1
2017-04-03T01:08:22.501Z,21.13
2017-04-03T01:09:32.767Z,21.14
2017-04-03T01:10:43.038Z,21.08
2017-04-03T01:11:52.998Z,21.03
2017-04-03T01:13:03.283Z,21.11
2017-04-03T01:14:13.550Z,21.03
2017-04-03T01:15:24.086Z,21
2017-04-03T01:16:34.371Z,21.01
2017-04-03T01:17:44.337Z,21.03
2017-04-03T01:18:54.294Z,21.07
2017-04-03T01:20:04.581Z,21.07
2017-04-03T01:21:15.101Z,21.13
2017-04-03T01:22:25.065Z,21.11
2017-04-03T01:23:35.337Z,21.07
2017-04-03T01:24:45.621Z,21.08
2017-04-03T01:25:55.578Z,21.04
2017-04-03T01:27:06.149Z,21.11
2017-04-03T01:28:16.120Z,21.07
2017-04-03T01:29:26.074Z,21.04
2017-04-03T01:30:36.354Z,21.05
2017-04-03T01:31:46.628Z,21.05
2017-04-03T01:32:56.849Z,21.04
2017-04-03T01:34:07.126Z,21.04
2017-04-03T01:35:17.087Z,21.03
2017-04-03T01:36:27.365Z,21
2017-04-03T01:37:37.641Z,21.04
2017-04-03T01:38:48.163Z,21
2017-04-03T01:39:58.143Z,21.04
2017-04-03T01:41:08.421Z,21
2017-04-03T01:42:18.692Z,21.05
2017-04-03T01:43:28.958Z,21.08
2017-04-03T01:44:38.864Z,21.05
2017-04-03T01:45:49.135Z,21.07
2017-04-03T01:46:59.419Z,21.04
2017-04-03T01:48:09.395Z,21.01
2017-04-03T01:49:19.720Z,21.03
2017-04-03T01:50:30.296Z,20.96
2017-04-03T01:51:40.584Z,21
2017-04-03T01:52:50.859Z,20.96
2017-04-03T01:54:00.813Z,21.03
2017-04-03T01:55:11.094Z,20.96
2017-04-03T01:56:21.637Z,21.01
2017-04-03T01:57:31.913Z,20.98
2017-04-03T01:58:42.196Z,20.98
2017-04-03T01:59:52.470Z,20.9
2017-04-03T02:01:02.750Z,20.95
2017-04-03T02:02:13.014Z,21
2017-04-03T02:03:23.285Z,21.03
2017-04-03T02:04:33.558Z,20.96
2017-04-03T02:05:43.828Z,20.96
2017-04-03T02:06:53.785Z,21
2017-04-03T02:08:04.304Z,21.03
2017-04-03T02:09:14.259Z,21
2017-04-03T02:10:24.542Z,20.95
2017-04-03T02:11:34.821Z,20.98
2017-04-03T02:12:44.791Z,21.01
2017-04-03T02:13:55.365Z,20.98
2017-04-03T02:15:05.321Z,20.9
2017-04-03T02:16:15.595Z,20.98
2017-04-03T02:17:25.856Z,21.01
2017-04-03T02:18:36.168Z,21.03
2017-04-03T02:19:46.696Z,21
2017-04-03T02:20:56.964Z,20.95
2017-04-03T02:22:07.248Z,20.89
2017-04-03T02:23:17.526Z,21.05
2017-04-03T02:24:27.181Z,20.93
2017-04-03T02:25:37.444Z,20.93
2017-04-03T02:26:47.714Z,21
2017-04-03T02:27:57.980Z,20.96
2017-04-03T02:29:08.248Z,20.89
2017-04-03T02:30:18.211Z,20.9
2017-04-03T02:31:28.734Z,20.96
2017-04-03T02:32:38.750Z,20.89
2017-04-03T02:33:48.414Z,21.03
2017-04-03T02:34:58.696Z,20.95
2017-04-03T02:36:08.958Z,20.85
2017-04-03T02:37:19.377Z,20.98
2017-04-03T02:38:29.349Z,20.98
2017-04-03T02:39:39.345Z,20.96
2017-04-03T02:40:49.616Z,20.96
2017-04-03T02:41:59.886Z,20.95
2017-04-03T02:43:10.097Z,20.85
2017-04-03T02:44:20.053Z,20.83
2017-04-03T02:45:30.016Z,20.95
2017-04-03T02:46:40.313Z,20.9
2017-04-03T02:47:50.590Z,20.88
2017-04-03T02:49:01.103Z,20.95
2017-04-03T02:50:11.373Z,20.86
2017-04-03T02:51:21.025Z,20.92
2017-04-03T02:52:31.294Z,20.93
2017-04-03T02:53:41.255Z,20.98
2017-04-03T02:54:51.840Z,20.86
2017-04-03T02:56:02.112Z,20.85
2017-04-03T02:57:12.078Z,20.86
2017-04-03T02:58:22.043Z,20.82
2017-04-03T02:59:32.323Z,20.85
2017-04-03T03:00:42.543Z,20.89
2017-04-03T03:01:52.818Z,20.9
2017-04-03T03:03:02.779Z,20.96
2017-04-03T03:04:13.044Z,20.93
2017-04-03T03:05:23.002Z,20.86
2017-04-03T03:06:33.572Z,20.93
2017-04-03T03:07:43.849Z,20.9
2017-04-03T03:08:54.127Z,20.89
2017-04-03T03:10:04.090Z,20.86
2017-04-03T03:11:14.355Z,20.93
2017-04-03T03:12:24.610Z,20.86
2017-04-03T03:13:34.591Z,20.86
2017-04-03T03:14:44.866Z,20.86
2017-04-03T03:15:55.141Z,20.92
2017-04-03T03:17:05.114Z,20.92
2017-04-03T03:18:15.347Z,20.89
2017-04-03T03:19:25.622Z,20.86
2017-04-03T03:20:35.888Z,20.85
2017-04-03T03:21:46.168Z,20.89
2017-04-03T03:22:56.140Z,20.9
2017-04-03T03:24:06.728Z,20.85
2017-04-03T03:25:16.693Z,20.89
2017-04-03T03:26:26.977Z,20.86
2017-04-03T03:27:36.623Z,20.82
2017-04-03T03:28:46.895Z,20.89
2017-04-03T03:29:57.465Z,20.86
2017-04-03T03:31:07.756Z,20.85
2017-04-03T03:32:17.406Z,20.86
2017-04-03T03:33:27.674Z,20.8
2017-04-03T03:34:37.950Z,20.74
2017-04-03T03:35:48.518Z,20.77
2017-04-03T03:36:58.839Z,20.83
2017-04-03T03:38:09.110Z,20.8
2017-04-03T03:39:18.763Z,20.74
2017-04-03T03:40:29.231Z,20.71
2017-04-03T03:41:39.810Z,20.75
2017-04-03T03:42:50.076Z,20.85
2017-04-03T03:44:00.034Z,20.85
2017-04-03T03:45:10.311Z,20.86
2017-04-03T03:46:20.586Z,20.8
2017-04-03T03:47:30.848Z,20.75
2017-04-03T03:48:41.125Z,20.77
2017-04-03T03:49:51.107Z,20.8
2017-04-03T03:51:01.066Z,20.74
2017-04-03T03:52:11.383Z,20.74
2017-04-03T03:53:21.898Z,20.82
2017-04-03T03:54:31.878Z,20.82
2017-04-03T03:55:42.160Z,20.75
2017-04-03T03:56:52.120Z,20.85
2017-04-03T03:58:02.091Z,20.77
2017-04-03T03:59:12.624Z,20.86
2017-04-03T04:00:22.591Z,20.78
2017-04-03T04:01:32.876Z,20.74
2017-04-03T04:02:43.160Z,20.77
2017-04-03T04:03:53.765Z,20.83
2017-04-03T04:05:04.338Z,20.8
2017-04-03T04:06:14.624Z,20.8
2017-04-03T04:07:24.909Z,20.78
2017-04-03T04:08:35.177Z,20.77
2017-04-03T04:09:45.459Z,20.74
2017-04-03T04:10:55.991Z,20.77
2017-04-03T04:12:06.283Z,20.73
2017-04-03T04:13:16.567Z,20.74
2017-04-03T04:14:26.842Z,20.82
2017-04-03T04:15:36.875Z,20.75
2017-04-03T04:16:47.432Z,20.77
2017-04-03T04:17:57.748Z,20.8
2017-04-03T04:19:08.026Z,20.75
2017-04-03T04:20:17.996Z,20.74
2017-04-03T04:21:28.275Z,20.74
2017-04-03T04:22:38.492Z,20.74
2017-04-03T04:23:48.771Z,20.75
2017-04-03T04:24:58.736Z,20.75
2017-04-03T04:26:08.753Z,20.82
2017-04-03T04:27:18.403Z,20.74
2017-04-03T04:28:28.981Z,20.71
2017-04-03T04:29:38.954Z,20.8
2017-04-03T04:30:49.402Z,20.8
2017-04-03T04:31:59.672Z,20.74
2017-04-03T04:33:09.638Z,20.78
2017-04-03T04:34:20.202Z,20.78
2017-04-03T04:35:30.472Z,20.74
2017-04-03T04:36:40.139Z,20.77
2017-04-03T04:37:50.410Z,20.74
2017-04-03T04:39:00.685Z,20.77
2017-04-03T04:40:10.945Z,20.75
2017-04-03T04:41:20.906Z,20.73
2017-04-03T04:42:30.554Z,20.78
2017-04-03T04:43:40.837Z,20.78
2017-04-03T04:44:51.119Z,20.75
2017-04-03T04:46:01.352Z,20.7
2017-04-03T04:47:11.308Z,20.73
2017-04-03T04:48:21.579Z,20.78
2017-04-03T04:49:31.225Z,20.78
2017-04-03T04:50:41.503Z,20.73
2017-04-03T04:51:51.725Z,20.74
2017-04-03T04:53:01.999Z,20.73
2017-04-03T04:54:11.952Z,20.74
2017-04-03T04:55:21.923Z,20.71
2017-04-03T04:56:32.199Z,20.73
2017-04-03T04:57:42.725Z,20.74
2017-04-03T04:58:53.006Z,20.73
2017-04-03T05:00:02.973Z,20.67
2017-04-03T05:01:12.949Z,20.71
2017-04-03T05:02:22.916Z,20.64
2017-04-03T05:03:33.141Z,20.63
2017-04-03T05:04:43.113Z,20.63
2017-04-03T05:05:53.399Z,20.63
2017-04-03T05:07:03.702Z,20.7
2017-04-03T05:08:14.182Z,20.58
2017-04-03T05:09:24.730Z,20.66
2017-04-03T05:10:34.089Z,20.63
2017-04-03T05:11:44.375Z,20.68
2017-04-03T05:12:54.661Z,20.67
2017-04-03T05:14:04.940Z,20.6
2017-04-03T05:15:15.768Z,20.59
2017-04-03T05:16:26.036Z,20.6
2017-04-03T05:17:36.313Z,20.5
2017-04-03T05:18:46.600Z,20.63
2017-04-03T05:19:56.262Z,20.63
2017-04-03T05:21:06.515Z,20.56
2017-04-03T05:22:16.477Z,20.66
2017-04-03T05:23:26.466Z,20.67
2017-04-03T05:24:36.758Z,20.67
2017-04-03T05:25:46.729Z,20.64
2017-04-03T05:26:57.254Z,20.64
2017-04-03T05:28:07.539Z,20.59
2017-04-03T05:29:17.838Z,20.64
2017-04-03T05:30:28.113Z,20.6
2017-04-03T05:31:38.074Z,20.64
2017-04-03T05:32:48.603Z,20.63
2017-04-03T05:33:58.267Z,20.64
2017-04-03T05:35:08.226Z,20.58
2017-04-03T05:36:18.193Z,20.58
2017-04-03T05:37:28.162Z,20.64
2017-04-03T05:38:38.693Z,20.68
2017-04-03T05:39:48.961Z,20.67
2017-04-03T05:40:59.244Z,20.59
2017-04-03T05:42:09.555Z,20.64
2017-04-03T05:43:19.832Z,20.6
2017-04-03T05:44:30.366Z,20.67
2017-04-03T05:45:40.682Z,20.67
2017-04-03T05:46:50.956Z,20.66
2017-04-03T05:48:01.267Z,20.68
2017-04-03T05:49:11.546Z,20.67
2017-04-03T05:50:21.753Z,20.67
2017-04-03T05:51:32.047Z,20.63
2017-04-03T05:52:42.327Z,20.68
2017-04-03T05:53:52.614Z,20.68
2017-04-03T05:55:02.568Z,20.7
2017-04-03T05:56:12.470Z,20.7
2017-04-03T05:57:22.759Z,20.67
2017-04-03T05:58:32.770Z,20.58
2017-04-03T05:59:43.064Z,20.56
2017-04-03T06:00:53.346Z,20.67
2017-04-03T06:02:03.884Z,20.64
2017-04-03T06:03:14.399Z,20.59
2017-04-03T06:04:24.670Z,20.59
2017-04-03T06:05:34.953Z,20.59
2017-04-03T06:06:44.908Z,20.64
2017-04-03T06:07:55.140Z,20.63
2017-04-03T06:09:05.427Z,20.58
2017-04-03T06:10:15.408Z,20.67
2017-04-03T06:11:25.711Z,20.7
2017-04-03T06:12:35.984Z,20.64
2017-04-03T06:13:46.192Z,20.66
2017-04-03T06:14:56.468Z,20.67
2017-04-03T06:16:06.746Z,20.67
2017-04-03T06:17:17.038Z,20.77
2017-04-03T06:18:27.001Z,20.64
2017-04-03T06:19:37.592Z,20.71
2017-04-03T06:20:47.580Z,20.74
2017-04-03T06:21:57.862Z,20.7
2017-04-03T06:23:07.568Z,20.77
2017-04-03T06:24:17.542Z,20.74
2017-04-03T06:25:28.154Z,20.74
2017-04-03T06:26:38.503Z,20.8
2017-04-03T06:27:48.484Z,20.74
2017-04-03T06:28:58.997Z,20.75
2017-04-03T06:30:09.291Z,20.75
2017-04-03T06:31:19.882Z,20.74
2017-04-03T06:32:30.162Z,20.74
2017-04-03T06:33:40.441Z,20.74
2017-04-03T06:34:50.411Z,20.74
2017-04-03T06:36:00.389Z,20.77
2017-04-03T06:37:10.299Z,20.83
2017-04-03T06:38:20.270Z,20.77
2017-04-03T06:39:29.941Z,20.82
2017-04-03T06:40:39.930Z,20.77
2017-04-03T06:41:50.218Z,20.7
2017-04-03T06:43:00.753Z,20.8
2017-04-03T06:44:11.034Z,20.78
2017-04-03T06:45:21.055Z,20.78
2017-04-03T06:46:31.332Z,20.77
2017-04-03T06:47:41.639Z,20.78
2017-04-03T06:48:52.188Z,20.71
2017-04-03T06:50:02.518Z,20.78
2017-04-03T06:51:12.815Z,20.73
2017-04-03T06:52:23.157Z,20.77
2017-04-03T06:53:33.459Z,20.74
2017-04-03T06:54:43.995Z,20.8
2017-04-03T06:55:54.300Z,20.78
2017-04-03T06:57:04.600Z,20.78
2017-04-03T06:58:15.076Z,20.8
2017-04-03T06:59:25.067Z,20.74
2017-04-03T07:00:35.315Z,20.85
2017-04-03T07:01:45.613Z,20.75
2017-04-03T07:02:55.281Z,20.82
2017-04-03T07:04:05.564Z,20.85
2017-04-03T07:05:15.551Z,20.85
2017-04-03T07:06:26.103Z,20.74
2017-04-03T07:07:36.384Z,20.8
2017-04-03T07:08:46.379Z,20.82
2017-04-03T07:09:56.698Z,20.88
2017-04-03T07:11:06.674Z,20.83
2017-04-03T07:12:16.927Z,20.83
2017-04-03T07:13:27.266Z,20.86
2017-04-03T07:14:37.646Z,20.86
2017-04-03T07:15:47.995Z,20.88
2017-04-03T07:16:58.280Z,20.85
2017-04-03T07:18:08.810Z,20.89
2017-04-03T07:19:18.819Z,20.89
2017-04-03T07:20:28.813Z,20.92
2017-04-03T07:21:39.152Z,20.92
2017-04-03T07:22:49.145Z,20.93
2017-04-03T07:23:59.693Z,20.93
2017-04-03T07:25:09.678Z,20.83
2017-04-03T07:26:19.974Z,20.95
2017-04-03T07:27:30.283Z,20.88
2017-04-03T07:28:40.577Z,20.89
2017-04-03T07:29:51.164Z,20.89
2017-04-03T07:31:01.140Z,20.86
2017-04-03T07:32:11.432Z,20.9
2017-04-03T07:33:21.404Z,20.86
2017-04-03T07:34:31.928Z,20.92
2017-04-03T07:35:42.215Z,20.96
2017-04-03T07:36:52.172Z,20.88
2017-04-03T07:38:01.822Z,20.85
2017-04-03T07:39:12.090Z,20.9
2017-04-03T07:40:22.384Z,20.9
2017-04-03T07:41:32.976Z,20.9
2017-04-03T07:42:43.258Z,20.85
2017-04-03T07:43:53.228Z,20.92
2017-04-03T07:45:03.202Z,20.92
2017-04-03T07:46:13.500Z,20.92
2017-04-03T07:47:24.018Z,20.96
2017-04-03T07:48:34.323Z,20.89
2017-04-03T07:49:44.294Z,20.95
2017-04-03T07:50:54.588Z,20.86
2017-04-03T07:52:04.567Z,20.95
2017-04-03T07:53:14.527Z,20.96
2017-04-03T07:54:24.822Z,20.92
2017-04-03T07:55:35.132Z,20.93
2017-04-03T07:56:45.416Z,20.92
2017-04-03T07:57:55.384Z,20.9
2017-04-03T07:59:05.912Z,20.95
2017-04-03T08:00:16.205Z,20.88
2017-04-03T08:01:25.901Z,20.93
2017-04-03T08:02:36.187Z,20.92
2017-04-03T08:03:46.494Z,20.96
2017-04-03T08:04:56.779Z,20.89
2017-04-03T08:06:07.054Z,20.89
2017-04-03T08:07:17.339Z,20.98
2017-04-03T08:08:27.320Z,20.93
2017-04-03T08:09:37.334Z,20.92
2017-04-03T08:10:47.613Z,21.03
2017-04-03T08:11:57.584Z,21
2017-04-03T08:13:07.279Z,20.92
2017-04-03T08:14:17.555Z,20.96
2017-04-03T08:15:27.837Z,20.96
2017-04-03T08:16:38.401Z,20.93
2017-04-03T08:17:48.418Z,20.96
2017-04-03T08:18:58.386Z,20.92
2017-04-03T08:20:08.367Z,20.96
2017-04-03T08:21:18.390Z,20.93
2017-04-03T08:22:28.603Z,20.96
2017-04-03T08:23:38.886Z,20.9
2017-04-03T08:24:49.176Z,21.03
2017-04-03T08:25:59.480Z,21
2017-04-03T08:27:09.778Z,20.95
2017-04-03T08:28:20.325Z,20.93
2017-04-03T08:29:29.977Z,21.01
2017-04-03T08:30:40.272Z,20.98
2017-04-03T08:31:50.559Z,20.95
2017-04-03T08:33:00.908Z,20.96
2017-04-03T08:34:11.564Z,20.98
2017-04-03T08:35:21.867Z,21.01
2017-04-03T08:36:31.534Z,20.98
2017-04-03T08:37:41.814Z,20.95
2017-04-03T08:38:51.796Z,20.98
2017-04-03T08:40:02.337Z,21
2017-04-03T08:41:12.637Z,20.93
2017-04-03T08:42:22.612Z,20.96
2017-04-03T08:43:32.890Z,21.01
2017-04-03T08:44:43.203Z,21.04
2017-04-03T08:45:53.178Z,21.01
2017-04-03T08:47:03.170Z,21.08
2017-04-03T08:48:12.847Z,21.04
2017-04-03T08:49:22.869Z,21.04
2017-04-03T08:50:33.158Z,21.05
2017-04-03T08:51:43.393Z,21
2017-04-03T08:52:53.378Z,21.04
2017-04-03T08:54:03.787Z,21.03
2017-04-03T08:55:14.121Z,21.11
2017-04-03T08:56:24.409Z,21.04
2017-04-03T08:57:34.946Z,21.14
2017-04-03T08:58:45.251Z,21.04
2017-04-03T08:59:55.553Z,20.98
2017-04-03T09:01:05.536Z,21.07
2017-04-03T09:02:15.825Z,21.04
2017-04-03T09:03:26.401Z,21.07
2017-04-03T09:04:36.701Z,21.1
2017-04-03T09:05:46.979Z,21.08
2017-04-03T09:06:56.955Z,21.08
2017-04-03T09:08:07.239Z,21.13
2017-04-03T09:09:17.613Z,21.11
2017-04-03T09:10:27.901Z,21.14
2017-04-03T09:11:38.194Z,21.14
2017-04-03T09:12:48.521Z,21.1
2017-04-03T09:13:58.495Z,21.13
2017-04-03T09:15:08.722Z,21.13
2017-04-03T09:16:19.009Z,21.14
2017-04-03T09:17:28.661Z,21.13
2017-04-03T09:18:38.987Z,21.15
2017-04-03T09:19:49.277Z,21.11
2017-04-03T09:20:59.812Z,21.17
2017-04-03T09:22:09.470Z,21.17
2017-04-03T09:23:19.764Z,21.15
2017-04-03T09:24:29.746Z,21.25
2017-04-03T09:25:40.018Z,21.17
2017-04-03T09:26:50.549Z,21.2
2017-04-03T09:28:00.514Z,21.17
2017-04-03T09:29:10.805Z,21.13
2017-04-03T09:30:21.088Z,21.13
2017-04-03T09:31:31.059Z,21.23
2017-04-03T09:32:41.599Z,21.14
2017-04-03T09:33:51.887Z,21.17
2017-04-03T09:35:01.549Z,21.22
2017-04-03T09:36:11.815Z,21.26
2017-04-03T09:37:21.801Z,21.15
2017-04-03T09:38:32.050Z,21.25
2017-04-03T09:39:42.333Z,21.25
2017-04-03T09:40:52.614Z,21.25
2017-04-03T09:42:02.937Z,21.28
2017-04-03T09:43:13.212Z,21.25
2017-04-03T09:44:23.785Z,21.32
2017-04-03T09:45:34.076Z,21.29
2017-04-03T09:46:44.371Z,21.25
2017-04-03T09:47:54.656Z,21.29
2017-04-03T09:49:04.990Z,21.2
2017-04-03T09:50:15.527Z,21.32
2017-04-03T09:51:25.191Z,21.33
2017-04-03T09:52:35.154Z,21.29
2017-04-03T09:53:45.459Z,21.29
2017-04-03T09:54:55.786Z,21.33
2017-04-03T09:56:05.743Z,21.25
2017-04-03T09:57:16.037Z,21.29
2017-04-03T09:58:26.012Z,21.35
2017-04-03T09:59:36.310Z,21.35
2017-04-03T10:00:46.291Z,21.3
2017-04-03T10:01:56.831Z,21.32
2017-04-03T10:03:06.798Z,21.38
2017-04-03T10:04:16.780Z,21.22
2017-04-03T10:05:26.761Z,21.23
2017-04-03T10:06:36.728Z,21.32
2017-04-03T10:07:46.945Z,21.29
2017-04-03T10:08:57.225Z,21.33
2017-04-03T10:10:07.539Z,21.3
2017-04-03T10:11:17.537Z,21.3
2017-04-03T10:12:27.845Z,21.22
2017-04-03T10:13:38.365Z,21.33
2017-04-03T10:14:48.342Z,21.23
2017-04-03T10:15:58.626Z,21.35
2017-04-03T10:17:08.901Z,21.32
2017-04-03T10:18:19.205Z,21.32
2017-04-03T10:19:29.770Z,21.23
2017-04-03T10:20:39.750Z,21.29
2017-04-03T10:21:50.029Z,21.25
2017-04-03T10:23:00.310Z,21.33
2017-04-03T10:24:10.270Z,21.35
2017-04-03T10:25:20.884Z,21.26
2017-04-03T10:26:31.194Z,21.28
2017-04-03T10:27:41.165Z,21.3
2017-04-03T10:28:51.504Z,21.33
2017-04-03T10:30:01.491Z,21.19
2017-04-03T10:31:12.019Z,21.28
2017-04-03T10:32:22.291Z,21.29
2017-04-03T10:33:32.622Z,21.29
2017-04-03T10:34:42.917Z,21.26
2017-04-03T10:35:52.899Z,21.29
2017-04-03T10:37:03.489Z,21.23
2017-04-03T10:38:13.789Z,21.26
2017-04-03T10:39:24.075Z,21.3
2017-04-03T10:40:34.353Z,21.32
2017-04-03T10:41:44.335Z,21.23
2017-04-03T10:42:54.250Z,21.25
2017-04-03T10:44:04.527Z,21.28
2017-04-03T10:45:14.824Z,21.28
2017-04-03T10:46:25.125Z,21.3
2017-04-03T10:47:35.092Z,21.29
2017-04-03T10:48:45.869Z,21.3
2017-04-03T10:49:56.178Z,21.32
2017-04-03T10:51:06.138Z,21.3
2017-04-03T10:52:16.465Z,21.28
2017-04-03T10:53:26.749Z,21.33
2017-04-03T10:54:37.027Z,21.32
2017-04-03T10:55:47.023Z,21.3
2017-04-03T10:56:57.005Z,21.3
2017-04-03T10:58:07.288Z,21.28
2017-04-03T10:59:17.592Z,21.3
2017-04-03T11:00:28.127Z,21.33
2017-04-03T11:01:38.123Z,21.28
2017-04-03T11:02:48.096Z,21.28
2017-04-03T11:03:58.627Z,21.32
2017-04-03T11:05:08.917Z,21.29
2017-04-03T11:06:19.455Z,21.32
2017-04-03T11:07:29.463Z,21.28
2017-04-03T11:08:39.135Z,21.32
2017-04-03T11:09:49.420Z,21.3
2017-04-03T11:10:59.714Z,21.25
2017-04-03T11:12:09.931Z,21.3
2017-04-03T11:13:20.215Z,21.26
2017-04-03T11:14:30.501Z,21.26
2017-04-03T11:15:40.791Z,21.32
2017-04-03T11:16:50.774Z,21.35
2017-04-03T11:18:01.314Z,21.33
2017-04-03T11:19:11.295Z,21.29
2017-04-03T11:20:21.575Z,21.29
2017-04-03T11:21:31.567Z,21.32
2017-04-03T11:22:41.539Z,21.29
2017-04-03T11:23:52.090Z,21.3
2017-04-03T11:25:02.378Z,21.29
2017-04-03T11:26:12.373Z,21.35
2017-04-03T11:27:22.671Z,21.3
2017-04-03T11:28:32.976Z,21.33
2017-04-03T11:29:43.265Z,21.38
2017-04-03T11:30:53.263Z,21.3
2017-04-03T11:32:03.543Z,21.3
2017-04-03T11:33:13.846Z,21.33
2017-04-03T11:34:23.528Z,21.33
2017-04-03T11:35:34.063Z,21.4
2017-04-03T11:36:44.371Z,21.41
2017-04-03T11:37:54.676Z,21.44
2017-04-03T11:39:05.025Z,21.38
2017-04-03T11:40:15.354Z,21.43
2017-04-03T11:41:25.262Z,21.37
2017-04-03T11:42:35.567Z,21.47
2017-04-03T11:43:45.889Z,21.45
2017-04-03T11:44:56.187Z,21.51
2017-04-03T11:46:06.289Z,21.47
2017-04-03T11:47:17.147Z,21.45
2017-04-03T11:48:27.447Z,21.45
2017-04-03T11:49:37.460Z,21.48
2017-04-03T11:50:47.785Z,21.48
2017-04-03T11:51:57.436Z,21.53
2017-04-03T11:53:07.966Z,21.43
2017-04-03T11:54:18.298Z,21.43
2017-04-03T11:55:28.585Z,21.48
2017-04-03T11:56:38.858Z,21.6
2017-04-03T11:57:49.168Z,21.54
2017-04-03T11:58:59.414Z,21.58
2017-04-03T12:00:09.701Z,21.45
2017-04-03T12:01:19.995Z,21.58
2017-04-03T12:02:29.978Z,21.58
2017-04-03T12:03:40.268Z,21.54
2017-04-03T12:04:49.864Z,21.58
2017-04-03T12:06:00.137Z,21.54
2017-04-03T12:07:10.139Z,21.58
2017-04-03T12:08:20.463Z,21.56
2017-04-03T12:09:30.754Z,21.45
2017-04-03T12:10:41.284Z,21.56
2017-04-03T12:11:51.585Z,21.53
2017-04-03T12:13:01.569Z,21.45
2017-04-03T12:14:11.840Z,21.43
2017-04-03T12:15:22.119Z,21.54
2017-04-03T12:16:32.398Z,21.41
2017-04-03T12:17:42.699Z,21.56
2017-04-03T12:18:52.969Z,21.58
2017-04-03T12:20:02.635Z,21.56
2017-04-03T12:21:12.916Z,21.54
2017-04-03T12:22:23.145Z,21.48
2017-04-03T12:23:33.428Z,21.56
2017-04-03T12:24:43.403Z,21.51
2017-04-03T12:25:53.384Z,21.5
2017-04-03T12:27:03.657Z,21.53
2017-04-03T12:28:13.875Z,21.54
2017-04-03T12:29:24.167Z,21.58
2017-04-03T12:30:34.143Z,21.56
2017-04-03T12:31:44.420Z,21.54
2017-04-03T12:32:54.721Z,21.48
2017-04-03T12:34:04.993Z,21.45
2017-04-03T12:35:14.985Z,21.48
2017-04-03T12:36:25.262Z,21.48
2017-04-03T12:37:35.548Z,21.41
2017-04-03T12:38:45.836Z,21.5
2017-04-03T12:39:56.109Z,21.45
2017-04-03T12:41:06.417Z,21.45
2017-04-03T12:42:16.383Z,21.43
2017-04-03T12:43:26.570Z,21.5
2017-04-03T12:44:36.543Z,21.5
2017-04-03T12:45:47.175Z,21.6
2017-04-03T12:46:57.461Z,21.53
2017-04-03T12:48:07.756Z,21.56
2017-04-03T12:49:17.761Z,21.58
2017-04-03T12:50:28.063Z,21.51
2017-04-03T12:51:38.608Z,21.5
2017-04-03T12:52:48.884Z,21.51
2017-04-03T12:53:59.166Z,21.58
2017-04-03T12:55:09.443Z,21.53
2017-04-03T12:56:19.734Z,21.63
2017-04-03T12:57:30.329Z,21.63
2017-04-03T12:58:40.601Z,21.58
2017-04-03T12:59:50.908Z,21.59
2017-04-03T13:01:00.566Z,21.58
2017-04-03T13:02:10.875Z,21.58
2017-04-03T13:03:21.093Z,21.65
2017-04-03T13:04:31.065Z,21.65
2017-04-03T13:05:40.721Z,21.6
2017-04-03T13:06:51.018Z,21.77
2017-04-03T13:08:00.980Z,21.6
2017-04-03T13:09:11.566Z,21.65
2017-04-03T13:10:21.546Z,21.68
2017-04-03T13:11:31.849Z,21.62
2017-04-03T13:12:42.135Z,21.63
2017-04-03T13:13:52.114Z,21.63
2017-04-03T13:15:02.700Z,21.66
2017-04-03T13:16:12.359Z,21.63
2017-04-03T13:17:22.325Z,21.65
2017-04-03T13:18:32.610Z,21.69
2017-04-03T13:19:42.279Z,21.69
2017-04-03T13:20:52.860Z,21.7
2017-04-03T13:22:03.162Z,21.74
2017-04-03T13:23:13.497Z,21.7
2017-04-03T13:24:23.788Z,21.77
2017-04-03T13:25:34.060Z,21.66
2017-04-03T13:26:44.382Z,21.68
2017-04-03T13:27:54.362Z,21.68
2017-04-03T13:29:04.030Z,21.68
2017-04-03T13:30:14.302Z,21.69
2017-04-03T13:31:24.589Z,21.58
2017-04-03T13:32:39.186Z,21.6
2017-04-03T13:33:48.883Z,21.58
2017-04-03T13:34:59.178Z,21.6
2017-04-03T13:36:09.473Z,21.65
2017-04-03T13:37:19.454Z,21.53
2017-04-03T13:38:29.732Z,21.59
2017-04-03T13:39:39.750Z,21.59
2017-04-03T13:40:49.725Z,21.51
2017-04-03T13:41:59.701Z,21.65
2017-04-03T13:43:09.980Z,21.58
2017-04-03T13:44:20.513Z,21.63
2017-04-03T13:45:30.800Z,21.54
2017-04-03T13:46:40.782Z,21.56
2017-04-03T13:47:51.079Z,21.53
2017-04-03T13:49:01.066Z,21.51
2017-04-03T13:50:11.598Z,21.51
2017-04-03T13:51:21.871Z,21.62
2017-04-03T13:52:32.229Z,21.62
2017-04-03T13:53:42.508Z,21.58
2017-04-03T13:54:52.792Z,21.5
2017-04-03T13:56:03.068Z,21.56
2017-04-03T13:57:13.356Z,21.5
2017-04-03T13:58:23.679Z,21.5
2017-04-03T13:59:33.659Z,21.59
2017-04-03T14:00:43.958Z,21.54
2017-04-03T14:01:54.501Z,21.51
2017-04-03T14:03:04.826Z,21.51
2017-04-03T14:04:15.118Z,21.43
2017-04-03T14:05:25.394Z,21.47
2017-04-03T14:06:35.674Z,21.58
2017-04-03T14:07:45.980Z,21.56
2017-04-03T14:08:56.267Z,21.53
2017-04-03T14:10:06.569Z,21.48
2017-04-03T14:11:16.860Z,21.58
2017-04-03T14:12:27.144Z,21.54
2017-04-03T14:13:37.369Z,21.48
2017-04-03T14:14:47.650Z,21.54
2017-04-03T14:15:57.946Z,21.51
2017-04-03T14:17:07.925Z,21.54
2017-04-03T14:18:17.908Z,21.48
2017-04-03T14:19:28.481Z,21.48
2017-04-03T14:20:38.805Z,21.4
2017-04-03T14:21:48.789Z,21.48
2017-04-03T14:22:59.098Z,21.58
2017-04-03T14:24:09.376Z,21.53
2017-04-03T14:25:19.980Z,21.5
2017-04-03T14:26:29.956Z,21.43
2017-04-03T14:27:39.945Z,21.53
2017-04-03T14:28:50.231Z,21.45
2017-04-03T14:30:00.212Z,21.48
2017-04-03T14:31:10.758Z,21.48
2017-04-03T14:32:21.042Z,21.43
2017-04-03T14:33:31.325Z,21.44
2017-04-03T14:34:41.610Z,21.44
2017-04-03T14:35:51.882Z,21.43
2017-04-03T14:37:02.464Z,21.48
2017-04-03T14:38:12.147Z,21.45
2017-04-03T14:39:22.427Z,21.44
2017-04-03T14:40:32.705Z,21.43
2017-04-03T14:41:43.002Z,21.5
2017-04-03T14:42:53.607Z,21.51
2017-04-03T14:44:03.893Z,21.41
2017-04-03T14:45:13.873Z,21.51
2017-04-03T14:46:24.163Z,21.44
2017-04-03T14:47:34.138Z,21.56
2017-04-03T14:48:44.674Z,21.47
2017-04-03T14:49:54.649Z,21.37
2017-04-03T14:51:04.933Z,21.44
2017-04-03T14:52:14.947Z,21.48
2017-04-03T14:53:24.938Z,21.5
2017-04-03T14:54:35.480Z,21.5
2017-04-03T14:55:45.770Z,21.5
2017-04-03T14:56:56.116Z,21.5
2017-04-03T14:58:06.415Z,21.47
2017-04-03T14:59:16.754Z,21.44
2017-04-03T15:00:27.529Z,21.44
2017-04-03T15:01:37.525Z,21.41
2017-04-03T15:02:47.826Z,21.38
2017-04-03T15:03:58.162Z,21.4
2017-04-03T15:05:07.839Z,21.47
2017-04-03T15:06:18.408Z,21.41
2017-04-03T15:07:28.716Z,21.43
2017-04-03T15:08:39.029Z,21.47